Time;durP1;ratioP1;P1;durP2;ratioP2;P2;SDS_P1;SDS_P2;PMS_P1;PMS_P2;Temp;Humidity;BMP_temperature;BMP_pressure;BME280_temperature;BME280_humidity;BME280_pressure;Samples;Min_cycle;Max_cycle;Signal;HPM_P1;HPM_P2
2022/06/07 00:02:16;;;;;;;11.35;5.00;;;;;;;;;;4993649;28;20570;-78
2022/06/07 00:04:42;;;;;;;8.93;5.00;;;;;;;;;;5004639;28;20030;-78
2022/06/07 00:07:12;;;;;;;12.70;5.10;;;;;;;;;;4997951;28;20061;-78
2022/06/07 00:09:38;;;;;;;11.27;4.65;;;;;;;;;;5006644;28;20046;-79
2022/06/07 00:12:05;;;;;;;9.93;5.10;;;;;;;;;;5003601;28;20042;-78
2022/06/07 00:14:32;;;;;;;10.38;5.32;;;;;;;;;;5006440;28;20052;-78
2022/06/07 00:17:05;;;;;;;12.55;5.25;;;;;;;;;;5005242;28;20058;-79
2022/06/07 00:19:32;;;;;;;10.90;5.15;;;;;;;;;;5002845;28;20621;-77
2022/06/07 00:21:58;;;;;;;11.98;4.72;;;;;;;;;;5003460;28;20169;-78
2022/06/07 00:24:25;;;;;;;9.60;5.25;;;;;;;;;;4999866;28;20049;-78
2022/06/07 00:26:51;;;;;;;8.85;5.20;;;;;;;;;;5006642;28;20147;-78
2022/06/07 00:29:17;;;;;;;11.43;5.00;;;;;;;;;;5005393;28;20046;-79
2022/06/07 00:31:43;;;;;;;14.35;5.63;;;;;;;;;;5000879;28;20042;-79
2022/06/07 00:34:10;;;;;;;9.52;5.38;;;;;;;;;;4994749;28;20054;-78
2022/06/07 00:36:37;;;;;;;12.48;5.82;;;;;;;;;;5007300;28;20061;-78
2022/06/07 00:39:04;;;;;;;10.88;5.60;;;;;;;;;;4994960;28;20560;-80
2022/06/07 00:41:30;;;;;;;9.80;5.45;;;;;;;;;;4997020;28;20042;-78
2022/06/07 00:44:15;;;;;;;10.75;5.25;;;;;;;;;;5010913;28;20486;-79
2022/06/07 00:46:43;;;;;;;8.23;4.30;;;;;;;;;;4998953;28;20038;-78
2022/06/07 00:49:10;;;;;;;9.15;4.63;;;;;;;;;;5002954;28;20489;-78
2022/06/07 00:51:39;;;;;;;11.25;5.47;;;;;;;;;;5000455;28;20549;-78
2022/06/07 00:54:05;;;;;;;11.20;5.10;;;;;;;;;;5004550;28;20057;-78
2022/06/07 00:56:32;;;;;;;12.18;4.97;;;;;;;;;;5002160;28;20513;-79
2022/06/07 00:59:00;;;;;;;8.32;4.90;;;;;;;;;;5006966;28;20492;-79
2022/06/07 01:01:27;;;;;;;11.20;5.45;;;;;;;;;;4997248;28;20497;-78
2022/06/07 01:03:53;;;;;;;12.15;5.90;;;;;;;;;;5003047;28;20042;-78
2022/06/07 01:11:49;;;;;;;10.25;5.38;;;;;;;;;;5014937;28;20620;-79
2022/06/07 01:14:15;;;;;;;11.63;4.93;;;;;;;;;;5001706;28;20096;-79
2022/06/07 01:16:42;;;;;;;12.73;4.45;;;;;;;;;;5002849;28;20045;-78
2022/06/07 01:19:08;;;;;;;8.00;4.72;;;;;;;;;;5004136;28;20069;-79
2022/06/07 01:21:35;;;;;;;8.90;4.75;;;;;;;;;;4998598;28;20046;-79
2022/06/07 01:24:01;;;;;;;12.85;5.15;;;;;;;;;;4997962;28;20132;-79
2022/06/07 01:26:27;;;;;;;11.20;4.82;;;;;;;;;;5009015;28;20054;-78
2022/06/07 01:28:53;;;;;;;11.35;5.43;;;;;;;;;;5022167;28;20046;-79
2022/06/07 01:31:19;;;;;;;10.75;4.80;;;;;;;;;;5006499;28;20073;-79
2022/06/07 01:33:45;;;;;;;15.45;5.35;;;;;;;;;;5015497;28;20042;-78
2022/06/07 01:36:13;;;;;;;7.43;5.10;;;;;;;;;;4995022;28;20079;-78
2022/06/07 01:38:40;;;;;;;11.48;4.82;;;;;;;;;;4999136;28;20369;-78
2022/06/07 01:43:51;;;;;;;10.55;4.80;;;;;;;;;;5001405;28;20051;-79
2022/06/07 01:46:18;;;;;;;8.65;4.25;;;;;;;;;;5017987;28;20175;-79
2022/06/07 01:48:46;;;;;;;12.93;4.32;;;;;;;;;;5005256;28;20179;-78
2022/06/07 01:51:12;;;;;;;12.48;4.45;;;;;;;;;;5011910;28;20076;-79
2022/06/07 01:53:38;;;;;;;15.35;4.88;;;;;;;;;;5005890;28;20046;-77
2022/06/07 01:56:12;;;;;;;15.05;5.75;;;;;;;;;;5028905;28;20045;-78
2022/06/07 01:58:39;;;;;;;9.63;4.50;;;;;;;;;;5020975;28;20038;-79
2022/06/07 02:01:06;;;;;;;12.90;5.32;;;;;;;;;;5020863;28;20493;-78
2022/06/07 02:03:32;;;;;;;10.95;4.97;;;;;;;;;;5018336;28;20044;-78
2022/06/07 02:05:59;;;;;;;12.95;5.00;;;;;;;;;;5025682;28;20200;-78
2022/06/07 02:08:26;;;;;;;10.02;4.57;;;;;;;;;;5020332;28;20065;-80
2022/06/07 02:10:52;;;;;;;12.38;5.43;;;;;;;;;;5029431;28;20063;-80
2022/06/07 02:13:19;;;;;;;14.07;5.53;;;;;;;;;;5005114;28;20110;-79
2022/06/07 02:15:45;;;;;;;14.85;5.38;;;;;;;;;;5018148;28;20041;-79
2022/06/07 02:18:11;;;;;;;16.33;5.10;;;;;;;;;;5005179;28;20086;-79
2022/06/07 02:20:38;;;;;;;12.63;4.63;;;;;;;;;;5023702;28;20052;-79
2022/06/07 02:23:04;;;;;;;10.48;4.57;;;;;;;;;;5012219;28;20053;-79
2022/06/07 02:25:34;;;;;;;12.07;5.15;;;;;;;;;;4999343;28;20053;-80
2022/06/07 02:28:00;;;;;;;14.55;4.82;;;;;;;;;;5009910;28;20053;-78
2022/06/07 02:30:26;;;;;;;12.70;5.03;;;;;;;;;;5025550;28;20508;-79
2022/06/07 02:32:52;;;;;;;11.30;5.88;;;;;;;;;;5003882;28;20041;-79
2022/06/07 02:35:18;;;;;;;12.43;5.28;;;;;;;;;;5002895;28;20266;-79
2022/06/07 02:37:44;;;;;;;10.35;4.28;;;;;;;;;;5010890;28;20064;-80
2022/06/07 02:40:11;;;;;;;10.18;4.85;;;;;;;;;;5025622;28;20337;-78
2022/06/07 02:42:37;;;;;;;8.75;4.25;;;;;;;;;;5012412;28;20037;-79
2022/06/07 02:45:06;;;;;;;11.38;5.13;;;;;;;;;;5022810;28;20498;-78
2022/06/07 02:47:35;;;;;;;11.02;4.43;;;;;;;;;;5005611;28;20052;-78
2022/06/07 02:50:01;;;;;;;8.68;4.35;;;;;;;;;;5009213;28;20155;-79
2022/06/07 02:52:27;;;;;;;11.13;4.60;;;;;;;;;;5024928;28;20034;-79
2022/06/07 02:54:53;;;;;;;14.05;5.03;;;;;;;;;;5008215;28;20037;-79
2022/06/07 02:57:19;;;;;;;10.68;5.60;;;;;;;;;;5009628;28;21663;-78
2022/06/07 02:59:48;;;;;;;11.68;5.20;;;;;;;;;;5012384;28;20374;-79
2022/06/07 03:02:15;;;;;;;7.15;4.30;;;;;;;;;;5002371;28;20587;-77
2022/06/07 03:04:41;;;;;;;12.93;5.15;;;;;;;;;;5003462;28;20069;-79
2022/06/07 03:07:07;;;;;;;11.70;4.90;;;;;;;;;;5001076;28;20050;-79
2022/06/07 03:09:33;;;;;;;10.07;4.38;;;;;;;;;;5023456;28;20041;-79
2022/06/07 03:11:59;;;;;;;12.90;5.80;;;;;;;;;;5004146;28;20535;-79
2022/06/07 03:14:25;;;;;;;14.48;5.25;;;;;;;;;;5015415;28;20052;-79
2022/06/07 03:16:51;;;;;;;17.90;6.43;;;;;;;;;;5006076;28;20068;-79
2022/06/07 03:19:18;;;;;;;11.30;5.30;;;;;;;;;;5016305;28;20936;-79
2022/06/07 03:21:44;;;;;;;15.68;5.80;;;;;;;;;;5009728;28;20133;-79
2022/06/07 03:24:10;;;;;;;14.80;5.50;;;;;;;;;;5004011;28;20203;-78
2022/06/07 03:26:36;;;;;;;16.35;6.22;;;;;;;;;;5009853;28;20081;-79
2022/06/07 03:29:02;;;;;;;12.68;5.40;;;;;;;;;;5012934;28;20037;-78
2022/06/07 03:31:28;;;;;;;12.50;5.63;;;;;;;;;;4998672;28;20045;-78
2022/06/07 03:33:54;;;;;;;12.40;5.43;;;;;;;;;;5021335;28;20076;-78
2022/06/07 03:36:25;;;;;;;13.90;5.65;;;;;;;;;;5007073;28;20493;-77
2022/06/07 03:38:51;;;;;;;13.18;4.88;;;;;;;;;;5002755;28;20069;-79
2022/06/07 03:41:23;;;;;;;12.23;4.72;;;;;;;;;;5005906;28;20099;-78
2022/06/07 03:43:50;;;;;;;7.53;3.63;;;;;;;;;;5009758;28;20099;-77
2022/06/07 03:46:20;;;;;;;14.98;5.25;;;;;;;;;;5021386;28;20116;-79
2022/06/07 03:48:47;;;;;;;12.35;4.78;;;;;;;;;;5009969;28;20038;-79
2022/06/07 03:51:14;;;;;;;8.82;4.30;;;;;;;;;;5023661;28;20051;-79
2022/06/07 03:53:43;;;;;;;6.25;3.35;;;;;;;;;;5025854;28;20056;-79
2022/06/07 03:56:09;;;;;;;8.70;3.60;;;;;;;;;;5029345;28;20053;-79
2022/06/07 03:58:37;;;;;;;8.88;3.85;;;;;;;;;;5018971;28;20041;-79
2022/06/07 04:01:03;;;;;;;10.55;4.20;;;;;;;;;;5023861;28;20029;-79
2022/06/07 04:03:30;;;;;;;5.43;3.20;;;;;;;;;;5019275;28;20089;-79
2022/06/07 04:05:56;;;;;;;7.97;3.53;;;;;;;;;;5006945;28;20037;-79
2022/06/07 04:08:22;;;;;;;9.75;4.05;;;;;;;;;;5007435;28;20500;-79
2022/06/07 04:10:49;;;;;;;9.45;4.10;;;;;;;;;;5006425;28;20037;-80
2022/06/07 04:13:16;;;;;;;6.07;4.25;;;;;;;;;;5004981;28;20505;-80
2022/06/07 04:15:42;;;;;;;11.20;4.28;;;;;;;;;;5000958;28;20048;-79
2022/06/07 04:18:08;;;;;;;8.13;3.90;;;;;;;;;;5003362;28;20103;-80
2022/06/07 04:20:35;;;;;;;10.48;4.32;;;;;;;;;;5001290;28;20144;-79
2022/06/07 04:23:01;;;;;;;8.48;4.22;;;;;;;;;;5009768;28;20049;-79
2022/06/07 04:25:28;;;;;;;7.90;3.17;;;;;;;;;;5016748;28;20378;-78
2022/06/07 04:27:54;;;;;;;8.52;2.40;;;;;;;;;;4997595;28;20387;-79
2022/06/07 04:30:20;;;;;;;14.30;3.03;;;;;;;;;;5008101;28;20417;-76
2022/06/07 04:32:47;;;;;;;11.85;3.10;;;;;;;;;;5021880;28;20068;-78
2022/06/07 04:35:23;;;;;;;8.40;2.50;;;;;;;;;;5005295;28;20057;-78
2022/06/07 04:37:49;;;;;;;10.05;3.03;;;;;;;;;;5025282;28;20120;-78
2022/06/07 04:40:16;;;;;;;8.00;2.70;;;;;;;;;;5018482;28;20137;-78
2022/06/07 04:42:43;;;;;;;7.95;2.70;;;;;;;;;;5016899;28;20396;-79
2022/06/07 04:45:14;;;;;;;6.50;2.67;;;;;;;;;;5018263;28;20125;-79
2022/06/07 04:47:40;;;;;;;8.85;2.80;;;;;;;;;;5004476;28;20045;-78
2022/06/07 04:50:06;;;;;;;6.55;2.60;;;;;;;;;;5022574;28;20042;-79
2022/06/07 04:52:33;;;;;;;8.63;2.47;;;;;;;;;;5000267;28;20504;-78
2022/06/07 04:54:59;;;;;;;7.90;2.88;;;;;;;;;;5020045;28;20094;-79
2022/06/07 04:57:25;;;;;;;10.90;3.25;;;;;;;;;;4998343;28;20042;-78
2022/06/07 04:59:51;;;;;;;7.28;2.67;;;;;;;;;;5021779;28;20053;-79
2022/06/07 05:02:17;;;;;;;7.88;3.28;;;;;;;;;;5015137;28;20354;-79
2022/06/07 05:04:43;;;;;;;11.73;3.25;;;;;;;;;;4999925;28;20056;-79
2022/06/07 05:07:09;;;;;;;11.00;3.47;;;;;;;;;;4998478;28;20085;-79
2022/06/07 05:09:35;;;;;;;7.55;3.10;;;;;;;;;;5017824;28;20041;-79
2022/06/07 05:12:01;;;;;;;10.48;3.58;;;;;;;;;;5007619;28;20043;-80
2022/06/07 05:14:27;;;;;;;13.80;3.60;;;;;;;;;;5002302;28;20049;-79
2022/06/07 05:16:53;;;;;;;9.40;3.53;;;;;;;;;;5016400;28;20482;-79
2022/06/07 05:19:20;;;;;;;14.95;4.30;;;;;;;;;;5006938;28;20083;-79
2022/06/07 05:21:46;;;;;;;7.43;2.70;;;;;;;;;;5009454;28;20072;-79
2022/06/07 05:24:12;;;;;;;8.52;2.97;;;;;;;;;;5024338;28;20037;-78
2022/06/07 05:26:42;;;;;;;13.55;3.85;;;;;;;;;;5006796;28;20116;-77
2022/06/07 05:29:15;;;;;;;9.90;3.33;;;;;;;;;;5019434;28;20053;-79
2022/06/07 05:31:41;;;;;;;13.07;3.90;;;;;;;;;;5006462;28;20393;-78
2022/06/07 05:34:08;;;;;;;14.02;3.35;;;;;;;;;;5021527;28;20053;-78
2022/06/07 05:36:34;;;;;;;14.15;3.83;;;;;;;;;;5004659;28;20424;-78
2022/06/07 05:39:03;;;;;;;15.55;3.92;;;;;;;;;;5019353;28;20073;-78
2022/06/07 05:41:32;;;;;;;10.88;3.42;;;;;;;;;;5028304;28;20052;-78
2022/06/07 05:43:59;;;;;;;13.82;3.50;;;;;;;;;;5009240;28;20080;-78
2022/06/07 05:46:25;;;;;;;9.73;3.70;;;;;;;;;;5003884;28;20037;-78
2022/06/07 05:48:51;;;;;;;10.23;3.30;;;;;;;;;;5028410;28;20077;-78
2022/06/07 05:51:18;;;;;;;10.63;3.75;;;;;;;;;;5024656;28;20037;-79
2022/06/07 05:53:44;;;;;;;15.23;3.55;;;;;;;;;;5005165;28;20561;-78
2022/06/07 05:56:11;;;;;;;10.35;3.55;;;;;;;;;;5000213;28;21893;-78
2022/06/07 05:58:37;;;;;;;10.65;3.65;;;;;;;;;;5005533;28;20485;-77
2022/06/07 06:01:04;;;;;;;10.75;3.15;;;;;;;;;;5020633;28;20045;-77
2022/06/07 06:03:30;;;;;;;10.75;3.47;;;;;;;;;;4997494;28;20053;-78
2022/06/07 06:05:56;;;;;;;12.52;3.30;;;;;;;;;;5007956;28;22121;-79
2022/06/07 06:11:08;;;;;;;9.02;3.33;;;;;;;;;;5029903;28;20095;-79
2022/06/07 06:13:35;;;;;;;6.97;3.17;;;;;;;;;;5009699;28;20504;-78
2022/06/07 06:16:14;;;;;;;7.75;2.95;;;;;;;;;;5028523;28;20073;-78
2022/06/07 06:18:40;;;;;;;12.20;3.17;;;;;;;;;;4999222;28;20705;-79
2022/06/07 06:21:06;;;;;;;13.10;3.72;;;;;;;;;;5023430;28;20033;-79
2022/06/07 06:23:33;;;;;;;7.35;2.85;;;;;;;;;;5026078;28;20193;-78
2022/06/07 06:25:59;;;;;;;13.38;3.72;;;;;;;;;;5022018;28;20089;-79
2022/06/07 06:28:25;;;;;;;10.85;3.20;;;;;;;;;;5022884;28;20115;-80
2022/06/07 06:30:52;;;;;;;6.25;2.60;;;;;;;;;;5011961;28;20405;-79
2022/06/07 06:33:18;;;;;;;9.18;3.20;;;;;;;;;;5000535;28;20060;-78
2022/06/07 06:35:53;;;;;;;11.02;3.10;;;;;;;;;;5003450;28;20038;-78
2022/06/07 06:38:20;;;;;;;11.48;3.28;;;;;;;;;;5010050;28;20057;-80
2022/06/07 06:40:47;;;;;;;12.05;3.60;;;;;;;;;;5008879;28;20042;-78
2022/06/07 06:43:14;;;;;;;11.25;3.42;;;;;;;;;;5027240;28;20057;-78
2022/06/07 06:45:40;;;;;;;12.63;3.25;;;;;;;;;;5013834;28;20076;-78
2022/06/07 06:48:07;;;;;;;10.38;3.20;;;;;;;;;;5000869;28;20088;-79
2022/06/07 06:50:33;;;;;;;11.25;3.20;;;;;;;;;;5026807;28;20038;-78
2022/06/07 06:52:59;;;;;;;8.35;2.80;;;;;;;;;;5004947;28;20504;-79
2022/06/07 06:55:26;;;;;;;6.85;2.45;;;;;;;;;;5009731;28;20050;-79
2022/06/07 06:57:52;;;;;;;7.40;2.38;;;;;;;;;;5012604;28;20044;-78
2022/06/07 07:00:18;;;;;;;9.55;2.92;;;;;;;;;;5027844;28;20135;-78
2022/06/07 07:02:45;;;;;;;8.73;2.75;;;;;;;;;;5004004;28;20481;-77
2022/06/07 07:05:12;;;;;;;9.30;2.95;;;;;;;;;;5004871;28;20045;-78
2022/06/07 07:07:39;;;;;;;7.68;2.60;;;;;;;;;;5028630;28;20520;-79
2022/06/07 07:10:05;;;;;;;8.30;2.72;;;;;;;;;;5003019;28;20038;-77
2022/06/07 07:12:32;;;;;;;6.13;2.53;;;;;;;;;;5012015;28;20080;-78
2022/06/07 07:14:58;;;;;;;8.10;2.97;;;;;;;;;;5012570;28;20096;-78
2022/06/07 07:17:25;;;;;;;8.73;2.80;;;;;;;;;;5008193;28;20052;-78
2022/06/07 07:19:52;;;;;;;5.55;2.85;;;;;;;;;;5028618;28;20512;-78
2022/06/07 07:22:18;;;;;;;6.82;2.55;;;;;;;;;;5003348;28;21612;-79
2022/06/07 07:24:44;;;;;;;10.25;2.58;;;;;;;;;;5011365;28;20489;-78
2022/06/07 07:27:11;;;;;;;10.50;2.97;;;;;;;;;;5003525;28;20413;-78
2022/06/07 07:29:38;;;;;;;9.43;2.65;;;;;;;;;;4995001;28;20152;-78
2022/06/07 07:32:04;;;;;;;6.57;2.78;;;;;;;;;;5005565;28;20129;-78
2022/06/07 07:34:30;;;;;;;6.78;2.40;;;;;;;;;;5001401;28;20050;-78
2022/06/07 07:36:57;;;;;;;11.20;2.60;;;;;;;;;;5007478;28;20041;-79
2022/06/07 07:39:24;;;;;;;9.98;3.03;;;;;;;;;;5001274;28;20050;-78
2022/06/07 07:41:51;;;;;;;9.85;2.55;;;;;;;;;;5009307;28;20049;-78
2022/06/07 07:44:18;;;;;;;7.43;2.65;;;;;;;;;;5006077;28;20064;-79
2022/06/07 07:46:44;;;;;;;6.97;2.25;;;;;;;;;;5000578;28;20084;-78
2022/06/07 07:49:12;;;;;;;10.73;2.60;;;;;;;;;;5003150;28;20050;-78
2022/06/07 07:51:39;;;;;;;7.55;2.40;;;;;;;;;;4995104;28;20045;-79
2022/06/07 07:54:06;;;;;;;6.95;2.33;;;;;;;;;;5004793;28;20136;-78
2022/06/07 07:56:32;;;;;;;5.47;2.00;;;;;;;;;;5005898;28;20042;-78
2022/06/07 07:58:59;;;;;;;5.88;2.30;;;;;;;;;;5000547;28;20042;-78
2022/06/07 08:01:26;;;;;;;5.68;2.45;;;;;;;;;;5005145;28;20544;-78
2022/06/07 08:03:53;;;;;;;6.50;2.30;;;;;;;;;;5002529;28;20052;-78
2022/06/07 08:06:20;;;;;;;10.70;2.65;;;;;;;;;;5005484;28;20049;-78
2022/06/07 08:08:47;;;;;;;8.88;2.50;;;;;;;;;;4997796;28;20054;-78
2022/06/07 08:11:14;;;;;;;10.80;2.75;;;;;;;;;;5006053;28;20049;-79
2022/06/07 08:13:42;;;;;;;8.23;3.20;;;;;;;;;;5005549;28;20383;-78
2022/06/07 08:16:08;;;;;;;7.82;2.78;;;;;;;;;;5000814;28;20065;-77
2022/06/07 08:18:35;;;;;;;8.45;2.88;;;;;;;;;;5000795;28;20401;-77
2022/06/07 08:21:05;;;;;;;9.75;3.08;;;;;;;;;;4998633;28;20038;-77
2022/06/07 08:23:32;;;;;;;10.85;2.85;;;;;;;;;;5001617;28;20429;-78
2022/06/07 08:25:58;;;;;;;10.30;3.00;;;;;;;;;;5007412;28;20460;-78
2022/06/07 08:28:25;;;;;;;11.05;2.97;;;;;;;;;;5004251;28;20056;-78
2022/06/07 08:30:51;;;;;;;11.20;3.25;;;;;;;;;;5000103;28;20119;-78
2022/06/07 08:38:54;;;;;;;6.70;2.70;;;;;;;;;;5020691;28;20077;-79
2022/06/07 08:41:25;;;;;;;8.15;2.95;;;;;;;;;;5025321;28;20072;-77
2022/06/07 08:43:51;;;;;;;9.75;2.58;;;;;;;;;;5027321;28;20038;-78
2022/06/07 08:46:19;;;;;;;8.65;2.53;;;;;;;;;;5009591;28;20156;-77
2022/06/07 08:48:46;;;;;;;11.23;2.83;;;;;;;;;;5024345;28;20045;-78
2022/06/07 08:51:28;;;;;;;7.15;2.50;;;;;;;;;;5024820;28;20440;-78
2022/06/07 08:53:56;;;;;;;10.07;2.60;;;;;;;;;;5005508;28;20052;-78
2022/06/07 08:56:25;;;;;;;10.68;2.63;;;;;;;;;;5030178;28;21185;-78
2022/06/07 08:58:52;;;;;;;8.32;3.20;;;;;;;;;;5025850;28;20052;-79
2022/06/07 09:01:18;;;;;;;7.97;2.55;;;;;;;;;;5003511;28;21720;-79
2022/06/07 09:04:08;;;;;;;4.07;2.15;;;;;;;;;;5013452;28;20052;-79
2022/06/07 09:06:37;;;;;;;8.52;2.58;;;;;;;;;;5030012;28;20084;-78
2022/06/07 09:09:03;;;;;;;8.13;2.40;;;;;;;;;;5013682;28;20048;-78
2022/06/07 09:14:26;;;;;;;7.80;2.70;;;;;;;;;;5028562;28;20504;-78
2022/06/07 09:16:54;;;;;;;7.07;2.60;;;;;;;;;;5014997;28;20049;-79
2022/06/07 09:19:24;;;;;;;8.02;2.53;;;;;;;;;;5000175;28;20061;-79
2022/06/07 09:21:50;;;;;;;10.65;3.33;;;;;;;;;;5005304;28;20046;-78
2022/06/07 09:24:35;;;;;;;9.02;2.42;;;;;;;;;;5009266;28;20132;-78
2022/06/07 09:27:15;;;;;;;7.70;2.50;;;;;;;;;;5026654;28;20049;-79
2022/06/07 09:29:42;;;;;;;7.60;2.50;;;;;;;;;;5020794;28;20052;-78
2022/06/07 09:32:12;;;;;;;5.75;2.20;;;;;;;;;;5001052;28;20060;-79
2022/06/07 09:34:48;;;;;;;8.30;2.13;;;;;;;;;;5004962;28;20053;-79
2022/06/07 09:37:16;;;;;;;5.40;1.85;;;;;;;;;;5027202;28;20105;-79
2022/06/07 09:39:43;;;;;;;5.97;2.10;;;;;;;;;;5011082;28;20038;-79
2022/06/07 09:42:22;;;;;;;4.78;2.10;;;;;;;;;;5011227;28;20452;-79
2022/06/07 09:45:12;;;;;;;7.72;2.53;;;;;;;;;;5009721;28;20045;-79
2022/06/07 09:47:38;;;;;;;4.45;1.80;;;;;;;;;;5005115;28;20069;-79
2022/06/07 09:50:04;;;;;;;4.00;2.13;;;;;;;;;;5023027;28;20042;-79
2022/06/07 09:52:36;;;;;;;4.55;2.00;;;;;;;;;;5008164;28;20040;-78
2022/06/07 09:55:07;;;;;;;3.05;1.70;;;;;;;;;;5004182;28;20052;-78
2022/06/07 09:57:38;;;;;;;8.50;2.40;;;;;;;;;;5022972;28;20049;-78
2022/06/07 10:00:19;;;;;;;5.20;2.00;;;;;;;;;;5023907;28;20052;-78
2022/06/07 10:02:53;;;;;;;9.93;2.38;;;;;;;;;;5008542;28;20052;-78
2022/06/07 10:05:25;;;;;;;4.32;1.90;;;;;;;;;;5026177;28;20171;-79
2022/06/07 10:07:57;;;;;;;5.55;2.30;;;;;;;;;;5029730;28;20045;-78
2022/06/07 10:10:44;;;;;;;7.38;2.33;;;;;;;;;;5012446;28;20045;-78
2022/06/07 10:13:29;;;;;;;8.23;2.63;;;;;;;;;;5012256;28;20053;-78
2022/06/07 10:16:09;;;;;;;6.72;2.65;;;;;;;;;;5008320;28;20045;-79
2022/06/07 10:18:45;;;;;;;6.60;2.15;;;;;;;;;;5004986;28;20051;-78
2022/06/07 10:21:11;;;;;;;6.40;2.10;;;;;;;;;;5009234;28;20128;-78
2022/06/07 10:23:37;;;;;;;4.45;1.88;;;;;;;;;;5010062;28;20205;-78
2022/06/07 10:26:22;;;;;;;5.05;2.15;;;;;;;;;;5027355;28;20053;-78
2022/06/07 10:29:06;;;;;;;5.15;2.10;;;;;;;;;;5024841;28;20493;-78
2022/06/07 10:31:44;;;;;;;4.28;2.17;;;;;;;;;;5008682;28;20046;-79
2022/06/07 10:34:18;;;;;;;4.07;2.00;;;;;;;;;;5027276;28;20077;-79
2022/06/07 10:36:47;;;;;;;5.97;2.13;;;;;;;;;;5024512;28;20033;-77
2022/06/07 10:39:28;;;;;;;3.88;1.80;;;;;;;;;;5027345;28;20073;-76
2022/06/07 10:42:01;;;;;;;4.63;1.67;;;;;;;;;;5013961;28;20437;-77
2022/06/07 10:44:46;;;;;;;7.40;2.50;;;;;;;;;;5016346;28;20050;-77
2022/06/07 10:47:15;;;;;;;6.45;2.35;;;;;;;;;;5025483;28;20365;-78
2022/06/07 10:49:51;;;;;;;5.57;2.10;;;;;;;;;;5013610;28;20120;-78
2022/06/07 10:52:36;;;;;;;5.70;2.42;;;;;;;;;;5028082;28;20046;-79
2022/06/07 10:55:06;;;;;;;4.88;2.20;;;;;;;;;;5009892;28;20485;-78
2022/06/07 10:57:52;;;;;;;4.78;2.10;;;;;;;;;;5006008;28;20103;-78
2022/06/07 11:00:37;;;;;;;4.88;2.45;;;;;;;;;;5022173;28;20998;-78
2022/06/07 11:03:03;;;;;;;4.00;1.75;;;;;;;;;;4998458;28;20042;-78
2022/06/07 11:11:12;;;;;;;4.28;1.80;;;;;;;;;;5012687;28;20054;-79
2022/06/07 11:14:02;;;;;;;2.55;1.70;;;;;;;;;;5005752;28;20414;-79
2022/06/07 11:16:32;;;;;;;6.80;2.13;;;;;;;;;;4967795;28;20052;-79
2022/06/07 11:19:02;;;;;;;3.30;1.58;;;;;;;;;;5011940;28;20057;-79
2022/06/07 11:21:32;;;;;;;3.33;1.80;;;;;;;;;;5016254;28;20068;-79
2022/06/07 11:24:06;;;;;;;3.47;1.90;;;;;;;;;;5012462;28;20145;-80
2022/06/07 11:26:50;;;;;;;4.22;2.10;;;;;;;;;;5028336;28;20088;-79
2022/06/07 11:29:22;;;;;;;3.25;2.00;;;;;;;;;;5000544;28;20481;-79
2022/06/07 11:31:51;;;;;;;4.28;1.92;;;;;;;;;;5017731;28;20043;-79
2022/06/07 11:34:31;;;;;;;4.93;2.08;;;;;;;;;;5026386;28;20088;-79
2022/06/07 11:37:09;;;;;;;5.72;2.30;;;;;;;;;;5006393;28;20034;-79
2022/06/07 11:39:39;;;;;;;6.22;2.50;;;;;;;;;;5000483;28;20068;-79
2022/06/07 11:42:08;;;;;;;5.85;2.35;;;;;;;;;;4999925;28;20053;-80
2022/06/07 11:44:36;;;;;;;9.95;2.72;;;;;;;;;;5029270;28;20048;-79
2022/06/07 11:47:08;;;;;;;6.50;2.08;;;;;;;;;;5029524;28;20037;-78
2022/06/07 11:49:46;;;;;;;7.67;1.93;;;;;;;;;;5007839;28;20096;-78
2022/06/07 11:52:12;;;;;;;5.70;2.10;;;;;;;;;;5003042;28;20382;-78
2022/06/07 11:54:54;;;;;;;7.90;2.10;;;;;;;;;;5009083;28;20497;-78
2022/06/07 11:57:20;;;;;;;5.93;2.33;;;;;;;;;;5005140;28;20380;-79
2022/06/07 11:59:47;;;;;;;8.75;2.15;;;;;;;;;;5002213;28;20111;-77
2022/06/07 12:02:16;;;;;;;5.22;2.15;;;;;;;;;;5006118;28;20053;-78
2022/06/07 12:04:43;;;;;;;6.53;2.08;;;;;;;;;;5016909;28;20048;-78
2022/06/07 12:07:19;;;;;;;6.70;2.15;;;;;;;;;;5007046;28;20049;-78
2022/06/07 12:09:51;;;;;;;5.22;2.20;;;;;;;;;;5011770;28;20037;-79
2022/06/07 12:12:18;;;;;;;7.05;2.35;;;;;;;;;;5009917;28;20523;-79
2022/06/07 12:14:49;;;;;;;5.55;1.65;;;;;;;;;;5027851;28;20438;-79
2022/06/07 12:17:29;;;;;;;5.45;2.10;;;;;;;;;;5009433;28;20049;-78
2022/06/07 12:19:55;;;;;;;6.68;2.20;;;;;;;;;;5012242;28;20120;-79
2022/06/07 12:22:23;;;;;;;4.40;2.03;;;;;;;;;;5025289;28;20042;-77
2022/06/07 12:24:55;;;;;;;4.85;2.00;;;;;;;;;;5027016;28;20517;-77
2022/06/07 12:27:23;;;;;;;6.60;1.80;;;;;;;;;;5023776;28;20060;-77
2022/06/07 12:29:50;;;;;;;2.53;1.63;;;;;;;;;;5011244;28;20131;-77
2022/06/07 12:32:21;;;;;;;4.93;1.98;;;;;;;;;;5025808;28;20041;-78
2022/06/07 12:34:47;;;;;;;2.33;1.80;;;;;;;;;;5011178;28;20053;-77
2022/06/07 12:37:14;;;;;;;4.65;1.83;;;;;;;;;;5004913;28;20478;-78
2022/06/07 12:39:45;;;;;;;5.03;1.85;;;;;;;;;;5010668;28;20049;-78
2022/06/07 12:42:16;;;;;;;4.47;1.73;;;;;;;;;;5026687;28;20163;-77
2022/06/07 12:44:49;;;;;;;6.10;1.85;;;;;;;;;;5027272;28;20121;-77
2022/06/07 12:47:22;;;;;;;6.05;2.00;;;;;;;;;;5024774;28;20052;-77
2022/06/07 12:49:48;;;;;;;6.20;2.00;;;;;;;;;;5011305;28;20052;-77
2022/06/07 12:52:16;;;;;;;5.85;2.13;;;;;;;;;;5025551;28;20049;-77
2022/06/07 12:54:48;;;;;;;6.00;2.15;;;;;;;;;;5022991;28;20042;-77
2022/06/07 12:57:26;;;;;;;4.73;2.07;;;;;;;;;;5012621;28;20037;-77
2022/06/07 12:59:56;;;;;;;5.20;2.10;;;;;;;;;;5010562;28;20323;-77
2022/06/07 13:02:31;;;;;;;3.80;1.83;;;;;;;;;;5006466;28;20592;-77
2022/06/07 13:05:00;;;;;;;4.65;1.90;;;;;;;;;;5004323;28;20049;-77
2022/06/07 13:07:33;;;;;;;7.32;2.28;;;;;;;;;;5006326;28;20116;-77
2022/06/07 13:10:01;;;;;;;4.07;2.25;;;;;;;;;;5023008;28;20093;-77
2022/06/07 13:12:42;;;;;;;8.23;2.05;;;;;;;;;;5008789;28;20496;-77
2022/06/07 13:15:17;;;;;;;5.25;2.05;;;;;;;;;;5016520;28;20087;-78
2022/06/07 13:17:52;;;;;;;4.32;2.15;;;;;;;;;;5021641;28;20478;-78
2022/06/07 13:20:34;;;;;;;3.70;1.80;;;;;;;;;;5004688;28;20045;-78
2022/06/07 13:23:00;;;;;;;3.55;2.00;;;;;;;;;;5009213;28;20439;-77
2022/06/07 13:25:28;;;;;;;4.05;2.33;;;;;;;;;;5001643;28;20382;-78
2022/06/07 13:28:06;;;;;;;3.28;1.90;;;;;;;;;;5009774;28;20163;-77
2022/06/07 13:30:42;;;;;;;4.00;1.70;;;;;;;;;;5004315;28;20045;-77
2022/06/07 13:33:24;;;;;;;5.68;2.00;;;;;;;;;;5026634;28;20041;-77
2022/06/07 13:35:57;;;;;;;4.13;1.90;;;;;;;;;;5006091;28;20053;-77
2022/06/07 13:38:23;;;;;;;4.78;2.30;;;;;;;;;;5008777;28;20113;-78
2022/06/07 13:41:00;;;;;;;2.95;1.67;;;;;;;;;;5010441;28;20133;-78
2022/06/07 13:43:26;;;;;;;5.15;1.95;;;;;;;;;;5013856;28;20394;-81
2022/06/07 13:45:53;;;;;;;4.43;2.00;;;;;;;;;;5014165;28;20041;-76
2022/06/07 13:53:21;;;;;;;5.35;2.00;;;;;;;;;;5012776;28;20054;-77
2022/06/07 13:54:03;;;;;;;;;;;;;;;;;;5025579;28;20132;-76
2022/06/07 13:56:29;;;;;;;6.85;2.40;;;;;;;;;;5003128;28;20052;-77
2022/06/07 13:58:56;;;;;;;4.63;1.90;;;;;;;;;;5014248;28;20041;-76
2022/06/07 14:01:28;;;;;;;5.03;2.30;;;;;;;;;;5014185;28;20041;-77
2022/06/07 14:03:56;;;;;;;6.03;2.33;;;;;;;;;;5016822;28;20052;-77
2022/06/07 14:06:26;;;;;;;7.00;2.22;;;;;;;;;;5008425;28;20045;-77
2022/06/07 14:08:53;;;;;;;4.90;2.15;;;;;;;;;;5025484;28;20479;-77
2022/06/07 14:11:20;;;;;;;4.20;1.98;;;;;;;;;;5011110;28;20163;-77
2022/06/07 14:13:46;;;;;;;3.42;2.10;;;;;;;;;;5010337;28;20046;-77
2022/06/07 14:16:17;;;;;;;5.70;1.90;;;;;;;;;;5028258;28;20045;-76
2022/06/07 14:18:45;;;;;;;4.07;2.28;;;;;;;;;;5011257;28;20054;-77
2022/06/07 14:21:11;;;;;;;4.15;2.00;;;;;;;;;;5004131;28;20045;-79
2022/06/07 14:23:37;;;;;;;2.85;2.00;;;;;;;;;;5026257;28;20042;-78
2022/06/07 14:26:03;;;;;;;4.00;1.90;;;;;;;;;;5009818;28;20084;-78
2022/06/07 14:28:29;;;;;;;6.70;2.30;;;;;;;;;;5017841;28;20554;-77
2022/06/07 14:30:56;;;;;;;8.55;2.30;;;;;;;;;;5024659;28;20095;-78
2022/06/07 14:33:23;;;;;;;6.10;2.40;;;;;;;;;;5015140;28;20044;-78
2022/06/07 14:35:50;;;;;;;6.38;2.20;;;;;;;;;;5030128;28;20516;-78
2022/06/07 14:38:17;;;;;;;4.60;1.95;;;;;;;;;;5032167;28;20408;-78
2022/06/07 14:40:44;;;;;;;7.88;2.20;;;;;;;;;;5013770;28;20049;-79
2022/06/07 14:43:11;;;;;;;3.90;2.00;;;;;;;;;;5003496;28;20042;-79
2022/06/07 14:45:47;;;;;;;4.75;1.90;;;;;;;;;;5009508;28;20083;-79
2022/06/07 14:48:23;;;;;;;7.28;2.30;;;;;;;;;;5005541;28;20057;-78
2022/06/07 14:50:49;;;;;;;4.53;1.98;;;;;;;;;;5008378;28;20453;-79
2022/06/07 14:53:15;;;;;;;5.05;1.98;;;;;;;;;;5011455;28;20041;-79
2022/06/07 14:55:42;;;;;;;4.18;2.08;;;;;;;;;;5005439;28;20382;-79
2022/06/07 14:58:08;;;;;;;3.95;2.00;;;;;;;;;;5012165;28;20099;-78
2022/06/07 15:00:34;;;;;;;4.95;2.22;;;;;;;;;;5007659;28;20061;-78
2022/06/07 15:03:01;;;;;;;4.45;1.90;;;;;;;;;;5014233;28;20049;-78
2022/06/07 15:05:30;;;;;;;3.67;1.95;;;;;;;;;;5018707;28;20057;-79
2022/06/07 15:08:04;;;;;;;5.35;1.92;;;;;;;;;;4997551;28;20458;-77
2022/06/07 15:10:31;;;;;;;5.88;2.25;;;;;;;;;;4999581;28;20049;-78
2022/06/07 15:12:57;;;;;;;4.50;1.90;;;;;;;;;;5026037;28;20393;-78
2022/06/07 15:15:24;;;;;;;7.03;1.88;;;;;;;;;;4999024;28;20580;-79
2022/06/07 15:17:54;;;;;;;6.13;2.10;;;;;;;;;;5013589;28;20045;-81